createdAt,value
2016-03-14T00:00:54.651Z,2.18
2016-03-14T00:01:54.654Z,2.25
2016-03-14T00:02:54.673Z,2.24
2016-03-14T00:03:54.722Z,2.17
2016-03-14T00:04:54.694Z,2.18
2016-03-14T00:05:54.712Z,2.18
2016-03-14T00:06:54.714Z,2.11
2016-03-14T00:07:54.733Z,2.13
2016-03-14T00:08:54.751Z,2.11
2016-03-14T00:09:54.770Z,2.11
2016-03-14T00:10:54.772Z,2.14
2016-03-14T00:11:54.775Z,2.1
2016-03-14T00:12:54.794Z,2.07
2016-03-14T00:13:54.811Z,2.13
2016-03-14T00:14:54.830Z,2.1
2016-03-14T00:15:54.833Z,2.11
2016-03-14T00:16:54.835Z,2.14
2016-03-14T00:17:54.855Z,2.1
2016-03-14T00:18:54.872Z,2.13
2016-03-14T00:19:54.891Z,2.14
2016-03-14T00:20:54.908Z,2.08
2016-03-14T00:21:54.880Z,2.1
2016-03-14T00:22:54.929Z,2.06
2016-03-14T00:23:54.916Z,2.04
2016-03-14T00:24:54.951Z,1.97
2016-03-14T00:25:54.953Z,1.88
2016-03-14T00:26:54.956Z,1.94
2016-03-14T00:27:54.974Z,1.95
2016-03-14T00:28:54.993Z,1.94
2016-03-14T00:29:55.011Z,1.92
2016-03-14T00:30:55.014Z,1.99
2016-03-14T00:31:55.017Z,1.94
2016-03-14T00:32:55.050Z,1.95
2016-03-14T00:33:55.053Z,1.89
2016-03-14T00:34:55.071Z,1.88
2016-03-14T00:35:55.073Z,1.89
2016-03-14T00:36:55.093Z,1.95
2016-03-14T00:37:55.095Z,1.87
2016-03-14T00:38:55.114Z,1.91
2016-03-14T00:39:55.131Z,1.89
2016-03-14T00:40:55.134Z,1.92
2016-03-14T00:41:55.152Z,1.88
2016-03-14T00:42:55.155Z,1.81
2016-03-14T00:43:55.174Z,1.76
2016-03-14T00:44:55.192Z,1.8
2016-03-14T00:45:55.194Z,1.74
2016-03-14T00:46:55.213Z,1.77
2016-03-14T00:47:55.231Z,1.87
2016-03-14T00:48:55.233Z,1.77
2016-03-14T00:49:55.236Z,1.78
2016-03-14T00:50:55.255Z,1.76
2016-03-14T00:51:55.288Z,1.73
2016-03-14T00:52:55.276Z,1.78
2016-03-14T00:53:55.294Z,1.73
2016-03-14T00:54:55.468Z,1.74
2016-03-14T00:55:55.315Z,1.7
2016-03-14T00:56:55.334Z,1.74
2016-03-14T00:57:55.337Z,1.68
2016-03-14T00:58:55.411Z,1.68
2016-03-14T00:59:55.358Z,1.67
2016-03-14T01:00:55.408Z,1.66
2016-03-14T01:01:56.356Z,1.67
2016-03-14T01:02:55.406Z,1.6
2016-03-14T01:03:55.394Z,1.62
2016-03-14T01:04:55.411Z,1.63
2016-03-14T01:05:55.445Z,1.66
2016-03-14T01:06:55.448Z,1.58
2016-03-14T01:07:55.466Z,1.6
2016-03-14T01:08:55.454Z,1.58
2016-03-14T01:09:55.269Z,1.48
2016-03-14T01:10:55.475Z,1.56
2016-03-14T01:11:55.508Z,1.5
2016-03-14T01:12:55.511Z,1.45
2016-03-14T01:13:55.530Z,1.53
2016-03-14T01:14:55.532Z,1.49
2016-03-14T01:15:55.551Z,1.35
2016-03-14T01:16:55.568Z,1.44
2016-03-14T01:17:55.415Z,1.41
2016-03-14T01:18:55.653Z,1.42
2016-03-14T01:19:55.624Z,1.41
2016-03-14T01:20:55.610Z,1.44
2016-03-14T01:21:55.613Z,1.41
2016-03-14T01:22:55.726Z,1.48
2016-03-14T01:23:55.665Z,1.37
2016-03-14T01:24:55.668Z,1.48
2016-03-14T01:25:55.656Z,1.44
2016-03-14T01:26:55.673Z,1.45
2016-03-14T01:27:55.692Z,1.45
2016-03-14T01:28:55.711Z,1.38
2016-03-14T01:29:55.714Z,1.42
2016-03-14T01:30:55.732Z,1.48
2016-03-14T01:31:55.734Z,1.49
2016-03-14T01:32:55.753Z,1.48
2016-03-14T01:33:55.755Z,1.45
2016-03-14T01:34:55.789Z,1.52
2016-03-14T01:35:55.761Z,1.44
2016-03-14T01:36:56.091Z,1.49
2016-03-14T01:37:55.797Z,1.49
2016-03-14T01:38:55.831Z,1.49
2016-03-14T01:39:55.850Z,1.48
2016-03-14T01:40:55.821Z,1.49
2016-03-14T01:41:55.855Z,1.53
2016-03-14T01:42:55.858Z,1.48
2016-03-14T01:43:55.876Z,1.49
2016-03-14T01:44:55.879Z,1.5
2016-03-14T01:45:55.913Z,1.4
2016-03-14T01:46:55.899Z,1.42
2016-03-14T01:47:55.933Z,1.45
2016-03-14T01:48:55.936Z,1.45
2016-03-14T01:49:55.954Z,1.35
2016-03-14T01:50:55.941Z,1.37
2016-03-14T01:51:55.976Z,1.4
2016-03-14T01:52:55.962Z,1.41
2016-03-14T01:53:56.012Z,1.31
2016-03-14T01:54:56.014Z,1.32
2016-03-14T01:55:56.002Z,1.35
2016-03-14T01:56:56.036Z,1.38
2016-03-14T01:57:56.023Z,1.32
2016-03-14T01:58:56.042Z,1.3
2016-03-14T01:59:56.075Z,1.28
2016-03-14T02:00:56.062Z,1.31
2016-03-14T02:01:56.096Z,1.23
2016-03-14T02:02:56.083Z,1.32
2016-03-14T02:03:56.117Z,1.26
2016-03-14T02:04:56.104Z,1.3
2016-03-14T02:05:56.154Z,1.2
2016-03-14T02:06:56.125Z,1.28
2016-03-14T02:07:56.159Z,1.23
2016-03-14T02:08:56.147Z,1.26
2016-03-14T02:09:56.258Z,1.23
2016-03-14T02:10:56.167Z,1.28
2016-03-14T02:11:56.202Z,1.24
2016-03-14T02:12:56.235Z,1.28
2016-03-14T02:13:56.222Z,1.3
2016-03-14T02:14:56.225Z,1.38
2016-03-14T02:15:56.258Z,1.32
2016-03-14T02:16:56.246Z,1.24
2016-03-14T02:17:56.280Z,1.3
2016-03-14T02:18:56.266Z,1.3
2016-03-14T02:19:56.285Z,1.35
2016-03-14T02:20:56.288Z,1.24
2016-03-14T02:21:56.321Z,1.24
2016-03-14T02:22:56.309Z,1.32
2016-03-14T02:23:56.326Z,1.24
2016-03-14T02:24:56.346Z,1.24
2016-03-14T02:25:56.364Z,1.2
2016-03-14T02:26:56.367Z,1.24
2016-03-14T02:27:56.385Z,1.16
2016-03-14T02:28:56.372Z,1.13
2016-03-14T02:29:56.421Z,1.19
2016-03-14T02:30:56.424Z,1.14
2016-03-14T02:31:56.411Z,1.16
2016-03-14T02:32:56.461Z,1.06
2016-03-14T02:33:56.447Z,1.06
2016-03-14T02:34:56.467Z,1.04
2016-03-14T02:35:56.469Z,0.98
2016-03-14T02:36:56.487Z,1.04
2016-03-14T02:37:56.490Z,1.02
2016-03-14T02:38:56.508Z,0.96
2016-03-14T02:39:56.527Z,0.98
2016-03-14T02:40:56.514Z,1.01
2016-03-14T02:41:56.547Z,0.88
2016-03-14T02:42:56.549Z,0.92
2016-03-14T02:43:56.553Z,0.98
2016-03-14T02:44:56.555Z,0.88
2016-03-14T02:45:56.589Z,0.92
2016-03-14T02:46:56.592Z,0.91
2016-03-14T02:47:56.610Z,0.78
2016-03-14T02:48:56.589Z,0.86
2016-03-14T02:49:56.612Z,0.81
2016-03-14T02:50:56.601Z,0.91
2016-03-14T02:51:56.591Z,0.92
2016-03-14T02:52:56.597Z,0.86
2016-03-14T02:53:56.607Z,0.84
2016-03-14T02:54:56.622Z,0.87
2016-03-14T02:55:56.619Z,0.84
2016-03-14T02:56:56.618Z,0.8
2016-03-14T02:57:56.631Z,0.78
2016-03-14T02:58:56.646Z,0.81
2016-03-14T02:59:56.647Z,0.84
2016-03-14T03:00:56.649Z,0.78
2016-03-14T03:01:56.681Z,0.84
2016-03-14T03:02:56.510Z,0.84
2016-03-14T03:03:56.700Z,0.81
2016-03-14T03:04:56.702Z,0.77
2016-03-14T03:05:56.718Z,0.8
2016-03-14T03:06:56.720Z,0.83
2016-03-14T03:07:56.723Z,0.83
2016-03-14T03:08:56.741Z,0.81
2016-03-14T03:09:56.760Z,0.8
2016-03-14T03:10:56.777Z,0.76
2016-03-14T03:11:56.780Z,0.84
2016-03-14T03:12:56.782Z,0.83
2016-03-14T03:13:56.817Z,0.88
2016-03-14T03:14:56.819Z,0.84
2016-03-14T03:15:56.838Z,0.83
2016-03-14T03:16:56.840Z,0.73
2016-03-14T03:17:56.969Z,0.84
2016-03-14T03:18:56.924Z,0.83
2016-03-14T03:19:56.958Z,0.74
2016-03-14T03:20:56.945Z,0.8
2016-03-14T03:21:56.885Z,0.77
2016-03-14T03:22:56.903Z,0.78
2016-03-14T03:23:56.906Z,0.76
2016-03-14T03:24:56.925Z,0.7
2016-03-14T03:25:56.928Z,0.76
2016-03-14T03:26:56.945Z,0.74
2016-03-14T03:27:56.933Z,0.78
2016-03-14T03:28:56.966Z,0.76
2016-03-14T03:29:56.969Z,0.66
2016-03-14T03:30:56.987Z,0.78
2016-03-14T03:31:56.990Z,0.74
2016-03-14T03:32:57.009Z,0.7
2016-03-14T03:33:57.011Z,0.77
2016-03-14T03:34:57.045Z,0.78
2016-03-14T03:35:57.048Z,0.8
2016-03-14T03:36:57.067Z,0.68
2016-03-14T03:37:57.053Z,0.69
2016-03-14T03:38:57.072Z,0.7
2016-03-14T03:39:57.074Z,0.7
2016-03-14T03:40:57.108Z,0.68
2016-03-14T03:41:57.111Z,0.73
2016-03-14T03:42:57.114Z,0.69
2016-03-14T03:43:57.147Z,0.68
2016-03-14T03:44:57.150Z,0.6
2016-03-14T03:45:57.184Z,0.65
2016-03-14T03:46:57.155Z,0.56
2016-03-14T03:47:57.173Z,0.58
2016-03-14T03:48:57.177Z,0.55
2016-03-14T03:49:57.210Z,0.56
2016-03-14T03:50:57.213Z,0.56
2016-03-14T03:51:57.215Z,0.46
2016-03-14T03:52:57.235Z,0.55
2016-03-14T03:53:57.253Z,0.55
2016-03-14T03:54:57.256Z,0.5
2016-03-14T03:55:57.258Z,0.5
2016-03-14T03:56:57.276Z,0.5
2016-03-14T03:57:57.278Z,0.58
2016-03-14T03:58:57.312Z,0.49
2016-03-14T03:59:57.300Z,0.6
2016-03-14T04:00:57.350Z,0.56
2016-03-14T04:01:57.336Z,0.62
2016-03-14T04:02:57.355Z,0.6
2016-03-14T04:03:57.357Z,0.59
2016-03-14T04:04:57.360Z,0.65
2016-03-14T04:05:57.378Z,0.68
2016-03-14T04:06:57.381Z,0.63
2016-03-14T04:07:57.415Z,0.6
2016-03-14T04:08:57.402Z,0.65
2016-03-14T04:09:57.436Z,0.66
2016-03-14T04:10:57.439Z,0.58
2016-03-14T04:11:57.458Z,0.66
2016-03-14T04:12:57.444Z,0.69
2016-03-14T04:13:57.462Z,0.69
2016-03-14T04:14:57.480Z,0.68
2016-03-14T04:15:57.483Z,0.76
2016-03-14T04:16:57.486Z,0.7
2016-03-14T04:17:57.489Z,0.73
2016-03-14T04:18:57.539Z,0.69
2016-03-14T04:19:57.525Z,0.69
2016-03-14T04:20:57.543Z,0.65
2016-03-14T04:21:57.546Z,0.77
2016-03-14T04:22:57.581Z,0.69
2016-03-14T04:23:57.568Z,0.65
2016-03-14T04:24:57.587Z,0.65
2016-03-14T04:25:57.604Z,0.6
2016-03-14T04:26:57.607Z,0.65
2016-03-14T04:27:57.610Z,0.65
2016-03-14T04:28:57.629Z,0.66
2016-03-14T04:29:57.646Z,0.6
2016-03-14T04:30:57.649Z,0.56
2016-03-14T04:31:57.651Z,0.47
2016-03-14T04:32:57.670Z,0.49
2016-03-14T04:33:57.689Z,0.63
2016-03-14T04:34:57.692Z,0.49
2016-03-14T04:35:57.709Z,0.56
2016-03-14T04:36:57.728Z,0.43
2016-03-14T04:37:57.730Z,0.5
2016-03-14T04:38:57.749Z,0.46
2016-03-14T04:39:57.752Z,0.41
2016-03-14T04:40:57.770Z,0.39
2016-03-14T04:41:57.788Z,0.43
2016-03-14T04:42:57.791Z,0.39
2016-03-14T04:43:57.793Z,0.36
2016-03-14T04:44:57.797Z,0.26
2016-03-14T04:45:57.814Z,0.25
2016-03-14T04:46:57.817Z,0.28
2016-03-14T04:47:57.835Z,0.28
2016-03-14T04:48:57.838Z,0.28
2016-03-14T04:49:57.871Z,0.22
2016-03-14T04:50:57.874Z,0.22
2016-03-14T04:51:57.893Z,0.23
2016-03-14T04:52:57.896Z,0.25
2016-03-14T04:53:57.914Z,0.19
2016-03-14T04:54:57.932Z,0.21
2016-03-14T04:55:57.935Z,0.12
2016-03-14T04:56:57.922Z,0.08
2016-03-14T04:57:57.940Z,0.11
2016-03-14T04:58:57.959Z,0.03
2016-03-14T04:59:57.992Z,0.07
2016-03-14T05:00:57.979Z,0.07
2016-03-14T05:01:58.014Z,0.1
2016-03-14T05:02:58.017Z,0.01
2016-03-14T05:03:58.020Z,-0.02
2016-03-14T05:04:58.022Z,0.07
2016-03-14T05:05:58.056Z,-0.03
2016-03-14T05:06:58.058Z,-0.06
2016-03-14T05:07:58.077Z,-0.08
2016-03-14T05:08:58.064Z,-0.02
2016-03-14T05:09:58.083Z,0.01
2016-03-14T05:10:58.085Z,0.03
2016-03-14T05:11:58.119Z,-0.03
2016-03-14T05:12:58.121Z,0
2016-03-14T05:13:58.124Z,0.03
2016-03-14T05:14:58.127Z,0
2016-03-14T05:15:58.145Z,-0.02
2016-03-14T05:16:58.163Z,-0.1
2016-03-14T05:17:58.166Z,-0.2
2016-03-14T05:18:58.184Z,-0.06
2016-03-14T05:19:58.188Z,-0.18
2016-03-14T05:20:58.221Z,-0.18
2016-03-14T05:21:58.208Z,-0.15
2016-03-14T05:22:58.226Z,-0.06
2016-03-14T05:23:58.229Z,-0.15
2016-03-14T05:24:58.247Z,-0.08
2016-03-14T05:25:58.250Z,-0.08
2016-03-14T05:26:58.284Z,-0.18
2016-03-14T05:27:58.287Z,-0.14
2016-03-14T05:28:58.304Z,-0.14
2016-03-14T05:29:58.307Z,-0.13
2016-03-14T05:30:58.309Z,-0.06
2016-03-14T05:31:58.328Z,-0.15
2016-03-14T05:32:58.315Z,-0.18
2016-03-14T05:33:58.334Z,-0.14
2016-03-14T05:34:58.352Z,-0.2
2016-03-14T05:35:58.370Z,-0.17
2016-03-14T05:36:58.373Z,-0.14
2016-03-14T05:37:58.392Z,-0.23
2016-03-14T05:38:58.395Z,-0.13
2016-03-14T05:39:58.428Z,-0.18
2016-03-14T05:40:58.416Z,-0.13
2016-03-14T05:41:58.433Z,-0.21
2016-03-14T05:42:58.436Z,-0.29
2016-03-14T05:43:58.455Z,-0.1
2016-03-14T05:44:58.442Z,-0.23
2016-03-14T05:45:58.475Z,-0.13
2016-03-14T05:46:58.478Z,-0.15
2016-03-14T05:47:58.496Z,-0.1
2016-03-14T05:48:58.499Z,-0.14
2016-03-14T05:49:58.502Z,-0.18
2016-03-14T05:50:58.535Z,-0.18
2016-03-14T05:51:58.523Z,-0.21
2016-03-14T05:52:58.557Z,-0.21
2016-03-14T05:53:58.560Z,-0.15
2016-03-14T05:54:58.593Z,-0.11
2016-03-14T05:55:58.581Z,-0.17
2016-03-14T05:56:58.599Z,-0.11
2016-03-14T05:57:58.586Z,-0.06
2016-03-14T05:58:58.604Z,-0.1
2016-03-14T05:59:58.637Z,-0.08
2016-03-14T06:00:58.656Z,-0.13
2016-03-14T06:01:58.675Z,-0.11
2016-03-14T06:02:58.662Z,-0.03
2016-03-14T06:03:58.664Z,0.01
2016-03-14T06:04:58.683Z,0.01
2016-03-14T06:05:58.685Z,0.04
2016-03-14T06:06:58.694Z,0.04
2016-03-14T06:07:58.712Z,0.15
2016-03-14T06:08:58.714Z,0.21
2016-03-14T06:09:58.733Z,0.18
2016-03-14T06:10:58.750Z,0.28
2016-03-14T06:11:58.753Z,0.26
2016-03-14T06:12:58.755Z,0.21
2016-03-14T06:13:58.775Z,0.4
2016-03-14T06:14:58.777Z,0.34
2016-03-14T06:15:58.796Z,0.32
2016-03-14T06:16:58.813Z,0.37
2016-03-14T06:17:58.816Z,0.44
2016-03-14T06:18:58.834Z,0.39
2016-03-14T06:19:58.838Z,0.46
2016-03-14T06:20:58.856Z,0.58
2016-03-14T06:21:58.874Z,0.52
2016-03-14T06:22:58.876Z,0.47
2016-03-14T06:23:58.864Z,0.49
2016-03-14T06:24:58.882Z,0.52
2016-03-14T06:25:58.901Z,0.58
2016-03-14T06:26:58.918Z,0.65
2016-03-14T06:27:58.937Z,0.62
2016-03-14T06:28:58.923Z,0.68
2016-03-14T06:29:58.958Z,0.68
2016-03-14T06:30:58.961Z,0.68
2016-03-14T06:31:58.979Z,0.74
2016-03-14T06:32:58.998Z,0.76
2016-03-14T06:33:59.000Z,0.78
2016-03-14T06:34:59.019Z,0.83
2016-03-14T06:35:59.005Z,0.84
2016-03-14T06:36:59.039Z,0.92
2016-03-14T06:37:59.042Z,0.95
2016-03-14T06:38:59.045Z,0.98
2016-03-14T06:39:59.063Z,1.01
2016-03-14T06:40:59.066Z,1.04
2016-03-14T06:41:59.099Z,1.01
2016-03-14T06:42:59.103Z,1.14
2016-03-14T06:43:59.105Z,1.16
2016-03-14T06:44:59.124Z,1.16
2016-03-14T06:45:59.126Z,1.14
2016-03-14T06:46:59.144Z,1.13
2016-03-14T06:47:59.162Z,1.14
2016-03-14T06:48:59.181Z,1.22
2016-03-14T06:49:59.184Z,1.23
2016-03-14T06:50:59.218Z,1.24
2016-03-14T06:51:59.204Z,1.3
2016-03-14T06:52:59.238Z,1.38
2016-03-14T06:53:59.225Z,1.4
2016-03-14T06:54:59.228Z,1.45
2016-03-14T06:55:59.278Z,1.45
2016-03-14T06:56:59.249Z,1.4
2016-03-14T06:57:59.267Z,1.49
2016-03-14T06:58:59.286Z,1.56
2016-03-14T06:59:59.289Z,1.67
2016-03-14T07:00:59.151Z,1.62
2016-03-14T07:01:59.342Z,1.62
2016-03-14T07:02:59.344Z,1.59
2016-03-14T07:03:59.331Z,1.67
2016-03-14T07:04:59.192Z,1.74
2016-03-14T07:05:59.367Z,1.74
2016-03-14T07:06:59.386Z,1.76
2016-03-14T07:07:59.373Z,1.81
2016-03-14T07:08:59.407Z,1.8
2016-03-14T07:09:59.409Z,1.89
2016-03-14T07:10:59.444Z,1.91
2016-03-14T07:11:59.430Z,1.89
2016-03-14T07:12:59.433Z,1.88
2016-03-14T07:13:59.451Z,1.87
2016-03-14T07:14:59.470Z,1.97
2016-03-14T07:15:59.488Z,1.85
2016-03-14T07:16:59.491Z,1.92
2016-03-14T07:17:59.509Z,2.06
2016-03-14T07:18:59.513Z,2.11
2016-03-14T07:19:59.546Z,2.13
2016-03-14T07:20:59.533Z,2.2
2016-03-14T07:21:59.566Z,2.13
2016-03-14T07:22:59.554Z,2.28
2016-03-14T07:23:59.587Z,2.26
2016-03-14T07:24:59.591Z,2.32
2016-03-14T07:25:59.624Z,2.49
2016-03-14T07:26:59.612Z,2.49
2016-03-14T07:27:59.629Z,2.47
2016-03-14T07:28:59.632Z,2.49
2016-03-14T07:29:59.650Z,2.5
2016-03-14T07:30:59.669Z,2.46
2016-03-14T07:31:59.672Z,2.51
2016-03-14T07:32:59.675Z,2.57
2016-03-14T07:33:59.678Z,2.53
2016-03-14T07:34:59.711Z,2.65
2016-03-14T07:35:59.714Z,2.62
2016-03-14T07:36:59.732Z,2.71
2016-03-14T07:37:59.751Z,2.69
2016-03-14T07:38:59.769Z,2.75
2016-03-14T07:39:59.771Z,2.75
2016-03-14T07:40:59.649Z,2.8
2016-03-14T07:41:59.792Z,2.86
2016-03-14T07:42:59.811Z,2.97
2016-03-14T07:43:59.814Z,2.87
2016-03-14T07:44:59.832Z,3.05
2016-03-14T07:45:59.881Z,3
2016-03-14T07:46:59.852Z,3.07
2016-03-14T07:47:59.871Z,3.11
2016-03-14T07:48:59.874Z,3.07
2016-03-14T07:49:59.908Z,3.07
2016-03-14T07:50:59.910Z,3.08
2016-03-14T07:51:59.913Z,3
2016-03-14T07:52:59.932Z,3.08
2016-03-14T07:53:59.950Z,3.19
2016-03-14T07:54:59.968Z,3.19
2016-03-14T07:56:00.002Z,3.26
2016-03-14T07:56:59.989Z,3.26
2016-03-14T07:57:59.992Z,3.31
2016-03-14T07:59:00.025Z,3.41
2016-03-14T08:00:00.029Z,3.37
2016-03-14T08:01:00.015Z,3.41
2016-03-14T08:02:00.034Z,3.5
2016-03-14T08:03:00.067Z,3.55
2016-03-14T08:04:00.086Z,3.59
2016-03-14T08:05:00.073Z,3.42
2016-03-14T08:06:00.107Z,3.42
2016-03-14T08:07:00.106Z,3.47
2016-03-14T08:08:00.125Z,3.48
2016-03-14T08:09:00.143Z,3.51
2016-03-14T08:10:00.147Z,3.56
2016-03-14T08:11:00.195Z,3.53
2016-03-14T08:12:00.167Z,3.65
2016-03-14T08:13:00.169Z,3.62
2016-03-14T08:14:00.203Z,3.58
2016-03-14T08:15:00.205Z,3.53
2016-03-14T08:16:00.224Z,3.63
2016-03-14T08:17:00.290Z,3.6
2016-03-14T08:18:00.261Z,3.63
2016-03-14T08:19:00.310Z,3.73
2016-03-14T08:20:00.298Z,3.7
2016-03-14T08:21:00.284Z,3.68
2016-03-14T08:22:00.287Z,3.6
2016-03-14T08:23:00.352Z,3.62
2016-03-14T08:24:00.324Z,3.63
2016-03-14T08:25:00.342Z,3.65
2016-03-14T08:26:00.345Z,3.74
2016-03-14T08:27:00.363Z,3.69
2016-03-14T08:28:00.366Z,3.65
2016-03-14T08:29:00.400Z,3.6
2016-03-14T08:30:00.403Z,3.66
2016-03-14T08:31:00.405Z,3.7
2016-03-14T08:32:00.423Z,3.68
2016-03-14T08:33:00.442Z,3.7
2016-03-14T08:34:00.461Z,3.86
2016-03-14T08:35:00.463Z,3.87
2016-03-14T08:36:00.481Z,3.98
2016-03-14T08:37:00.500Z,4.04
2016-03-14T08:38:00.517Z,4.02
2016-03-14T08:39:00.536Z,4.02
2016-03-14T08:40:00.523Z,4.17
2016-03-14T08:41:00.386Z,4.14
2016-03-14T08:42:00.576Z,4.28
2016-03-14T08:43:00.578Z,4.26
2016-03-14T08:44:00.581Z,4.22
2016-03-14T08:45:00.600Z,4.19
2016-03-14T08:46:00.602Z,4.2
2016-03-14T08:47:00.621Z,4.2
2016-03-14T08:48:00.638Z,4.35
2016-03-14T08:49:00.657Z,4.26
2016-03-14T08:50:00.660Z,4.26
2016-03-14T08:51:00.678Z,4.24
2016-03-14T08:52:00.696Z,4.28
2016-03-14T08:53:00.715Z,4.3
2016-03-14T08:54:00.718Z,4.34
2016-03-14T08:55:00.735Z,4.32
2016-03-14T08:56:00.754Z,4.42
2016-03-14T08:57:00.757Z,4.53
2016-03-14T08:58:00.775Z,4.59
2016-03-14T08:59:00.793Z,4.58
2016-03-14T09:00:00.827Z,4.68
2016-03-14T09:01:00.815Z,4.74
2016-03-14T09:02:00.817Z,4.63
2016-03-14T09:03:00.835Z,4.73
2016-03-14T09:04:00.837Z,4.73
2016-03-14T09:05:00.856Z,4.73
2016-03-14T09:06:00.875Z,4.86
2016-03-14T09:07:01.300Z,4.84
2016-03-14T09:08:00.895Z,4.87
2016-03-14T09:09:00.898Z,4.89
2016-03-14T09:10:00.932Z,4.9
2016-03-14T09:11:00.950Z,4.87
2016-03-14T09:12:00.953Z,4.89
2016-03-14T09:13:00.971Z,5
2016-03-14T09:14:00.974Z,4.99
2016-03-14T09:15:01.008Z,4.99
2016-03-14T09:16:01.011Z,5.07
2016-03-14T09:17:01.013Z,5.1
2016-03-14T09:18:01.047Z,5.18
2016-03-14T09:19:01.065Z,5.14
2016-03-14T09:20:01.053Z,5.12
2016-03-14T09:21:01.071Z,5.12
2016-03-14T09:22:01.105Z,5.14
2016-03-14T09:23:01.107Z,5.15
2016-03-14T09:24:01.110Z,5.26
2016-03-14T09:25:01.159Z,5.29
2016-03-14T09:26:01.147Z,5.26
2016-03-14T09:27:01.149Z,5.28
2016-03-14T09:28:01.168Z,5.28
2016-03-14T09:29:01.170Z,5.35
2016-03-14T09:30:01.204Z,5.46
2016-03-14T09:31:01.223Z,5.47
2016-03-14T09:32:01.225Z,5.41
2016-03-14T09:33:01.245Z,5.46
2016-03-14T09:34:01.262Z,5.44
2016-03-14T09:35:01.265Z,5.53
2016-03-14T09:36:01.283Z,5.51
2016-03-14T09:37:01.301Z,5.64
2016-03-14T09:38:01.304Z,5.75
2016-03-14T09:39:01.323Z,5.71
2016-03-14T09:40:01.341Z,5.8
2016-03-14T09:41:01.359Z,5.69
2016-03-14T09:42:01.362Z,5.72
2016-03-14T09:43:01.365Z,5.93
2016-03-14T09:44:01.399Z,5.86
2016-03-14T09:45:01.417Z,5.89
2016-03-14T09:46:01.420Z,5.86
2016-03-14T09:47:01.422Z,5.8
2016-03-14T09:48:01.441Z,5.8
2016-03-14T09:49:01.458Z,5.75
2016-03-14T09:50:01.477Z,5.75
2016-03-14T09:51:01.480Z,5.73
2016-03-14T09:52:01.498Z,5.76
2016-03-14T09:53:01.517Z,5.82
2016-03-14T09:54:01.519Z,5.76
2016-03-14T09:55:01.569Z,5.82
2016-03-14T09:56:01.571Z,5.9
2016-03-14T09:57:01.574Z,5.97
2016-03-14T09:58:01.592Z,6.02
2016-03-14T09:59:01.595Z,6.11
2016-03-14T10:00:01.613Z,6.24
2016-03-14T10:01:01.835Z,6.28
2016-03-14T10:02:01.651Z,6.27
2016-03-14T10:03:01.668Z,6.36
2016-03-14T10:04:01.687Z,6.39
2016-03-14T10:05:01.690Z,6.41
2016-03-14T10:06:01.708Z,6.33
2016-03-14T10:07:01.715Z,6.3
2016-03-14T10:08:01.754Z,6.28
2016-03-14T10:09:00.992Z,6.3
2016-03-14T10:10:01.760Z,6.27
2016-03-14T10:11:01.778Z,6.33
2016-03-14T10:12:01.780Z,6.39
2016-03-14T10:13:01.799Z,6.31
2016-03-14T10:14:01.817Z,6.41
2016-03-14T10:15:01.820Z,6.42
2016-03-14T10:16:01.838Z,6.48
2016-03-14T10:17:01.872Z,6.57
2016-03-14T10:18:01.859Z,6.66
2016-03-14T10:19:01.877Z,6.63
2016-03-14T10:20:01.896Z,6.64
2016-03-14T10:21:01.929Z,6.67
2016-03-14T10:22:01.933Z,6.85
2016-03-14T10:23:01.966Z,7
2016-03-14T10:24:01.954Z,6.92
2016-03-14T10:25:01.956Z,6.93
2016-03-14T10:26:02.006Z,7.05
2016-03-14T10:27:02.009Z,7.07
2016-03-14T10:28:02.026Z,7.13
2016-03-14T10:29:02.015Z,6.97
2016-03-14T10:30:02.064Z,6.85
2016-03-14T10:31:02.051Z,6.88
2016-03-14T10:32:02.084Z,6.95
2016-03-14T10:33:02.103Z,6.88
2016-03-14T10:34:02.106Z,6.82
2016-03-14T10:35:02.124Z,6.81
2016-03-14T10:36:01.392Z,6.84
2016-03-14T10:37:02.144Z,6.88
2016-03-14T10:38:02.163Z,6.87
2016-03-14T10:39:02.181Z,6.99
2016-03-14T10:40:02.200Z,6.85
2016-03-14T10:41:02.218Z,6.88
2016-03-14T10:42:02.221Z,6.85
2016-03-14T10:43:02.224Z,6.78
2016-03-14T10:44:02.242Z,6.88
2016-03-14T10:45:02.260Z,6.96
2016-03-14T10:46:02.278Z,6.96
2016-03-14T10:47:02.281Z,7.03
2016-03-14T10:48:02.315Z,6.93
2016-03-14T10:49:02.318Z,6.92
2016-03-14T10:50:02.352Z,7.02
2016-03-14T10:51:02.338Z,6.95
2016-03-14T10:52:02.373Z,7.02
2016-03-14T10:53:02.421Z,7.11
2016-03-14T10:54:02.393Z,7.05
2016-03-14T10:55:02.412Z,7.05
2016-03-14T10:56:02.414Z,7.18
2016-03-14T10:57:02.433Z,7.15
2016-03-14T10:58:02.435Z,7.25
2016-03-14T10:59:02.470Z,7.5
2016-03-14T11:00:02.487Z,7.4
2016-03-14T11:01:02.476Z,7.51
2016-03-14T11:02:02.510Z,7.47
2016-03-14T11:03:02.543Z,7.5
2016-03-14T11:04:02.546Z,7.61
2016-03-14T11:05:02.580Z,7.58
2016-03-14T11:06:02.568Z,7.5
2016-03-14T11:07:02.585Z,7.58
2016-03-14T11:08:02.604Z,7.63
2016-03-14T11:09:02.607Z,7.63
2016-03-14T11:10:02.625Z,7.8
2016-03-14T11:11:02.643Z,7.8
2016-03-14T11:12:02.645Z,7.93
2016-03-14T11:13:02.664Z,7.82
2016-03-14T11:14:02.683Z,7.77
2016-03-14T11:15:02.701Z,7.75
2016-03-14T11:16:02.735Z,7.69
2016-03-14T11:17:02.737Z,7.76
2016-03-14T11:18:02.756Z,7.91
2016-03-14T11:19:02.008Z,7.93
2016-03-14T11:20:02.792Z,7.98
2016-03-14T11:21:02.795Z,8.01
2016-03-14T11:22:02.817Z,8.13
2016-03-14T11:23:02.819Z,8.1
2016-03-14T11:24:02.837Z,8.1
2016-03-14T11:25:02.855Z,8.09
2016-03-14T11:26:02.889Z,8.16
2016-03-14T11:27:02.877Z,8.12
2016-03-14T11:28:02.910Z,8.23
2016-03-14T11:29:02.913Z,8.18
2016-03-14T11:30:02.932Z,8.13
2016-03-14T11:31:02.934Z,8.16
2016-03-14T11:32:02.953Z,8.23
2016-03-14T11:33:02.971Z,8.23
2016-03-14T11:34:03.005Z,8.13
2016-03-14T11:35:03.008Z,8.18
2016-03-14T11:36:03.026Z,8.08
2016-03-14T11:37:03.029Z,8.16
2016-03-14T11:38:03.046Z,8.18
2016-03-14T11:39:03.049Z,8.31
2016-03-14T11:40:03.084Z,8.3
2016-03-14T11:41:03.101Z,8.31
2016-03-14T11:42:03.105Z,8.38
2016-03-14T11:43:02.967Z,8.46
2016-03-14T11:44:03.156Z,8.61
2016-03-14T11:45:03.159Z,8.6
2016-03-14T11:46:03.178Z,8.49
2016-03-14T11:47:03.196Z,8.48
2016-03-14T11:48:03.198Z,8.46
2016-03-14T11:49:03.217Z,8.51
2016-03-14T11:50:03.236Z,8.67
2016-03-14T11:51:03.254Z,8.76
2016-03-14T11:52:03.288Z,8.84
2016-03-14T11:53:15.418Z,8.74
2016-03-14T11:54:03.277Z,8.84
2016-03-14T11:55:03.320Z,8.92
2016-03-14T11:56:03.314Z,8.94
2016-03-14T11:57:03.290Z,9.08
2016-03-14T11:58:03.314Z,9.02
2016-03-14T11:59:03.329Z,8.94
2016-03-14T12:00:03.342Z,9.1
2016-03-14T12:01:03.419Z,9.1
2016-03-14T12:02:03.371Z,9.22
2016-03-14T12:03:03.370Z,9.22
2016-03-14T12:04:03.384Z,9.25
2016-03-14T12:05:03.385Z,9.41
2016-03-14T12:06:03.418Z,9.44
2016-03-14T12:07:03.420Z,9.51
2016-03-14T12:08:03.437Z,9.56
2016-03-14T12:09:03.438Z,9.47
2016-03-14T12:10:03.472Z,9.43
2016-03-14T12:11:03.475Z,9.37
2016-03-14T12:12:03.508Z,9.37
2016-03-14T12:13:03.511Z,9.5
2016-03-14T12:14:03.527Z,9.44
2016-03-14T12:15:03.546Z,9.51
2016-03-14T12:16:03.564Z,9.54
2016-03-14T12:17:03.598Z,9.68
2016-03-14T12:18:03.647Z,9.69
2016-03-14T12:19:03.602Z,9.76
2016-03-14T12:20:03.652Z,9.8
2016-03-14T12:21:03.638Z,9.76
2016-03-14T12:22:03.672Z,9.79
2016-03-14T12:23:03.674Z,9.8
2016-03-14T12:24:03.694Z,9.68
2016-03-14T12:25:03.712Z,9.73
2016-03-14T12:26:03.715Z,9.72
2016-03-14T12:27:03.748Z,9.68
2016-03-14T12:28:03.767Z,9.76
2016-03-14T12:29:03.769Z,9.74
2016-03-14T12:30:03.773Z,9.8
2016-03-14T12:31:03.791Z,9.79
2016-03-14T12:32:03.824Z,9.74
2016-03-14T12:33:03.687Z,9.79
2016-03-14T12:34:03.845Z,9.89
2016-03-14T12:35:03.848Z,9.77
2016-03-14T12:36:03.881Z,9.74
2016-03-14T12:37:03.901Z,9.73
2016-03-14T12:38:03.919Z,9.74
2016-03-14T12:39:03.937Z,9.74
2016-03-14T12:40:03.956Z,9.74
2016-03-14T12:41:03.974Z,9.73
2016-03-14T12:42:03.992Z,9.79
2016-03-14T12:43:03.995Z,9.94
2016-03-14T12:44:04.013Z,9.95
2016-03-14T12:45:04.031Z,9.95
2016-03-14T12:46:04.049Z,10.01
2016-03-14T12:47:04.068Z,10.12
2016-03-14T12:48:04.086Z,10.2
2016-03-14T12:49:04.088Z,10.19
2016-03-14T12:50:04.107Z,10.25
2016-03-14T12:51:04.157Z,10.26
2016-03-14T12:52:04.144Z,10.28
2016-03-14T12:53:04.162Z,10.37
2016-03-14T12:54:04.181Z,10.42
2016-03-14T12:55:04.199Z,10.35
2016-03-14T12:56:04.217Z,10.48
2016-03-14T12:57:04.252Z,10.53
2016-03-14T12:58:04.238Z,10.44
2016-03-14T12:59:04.272Z,10.42
2016-03-14T13:00:04.290Z,10.4
2016-03-14T13:01:04.293Z,10.31
2016-03-14T13:02:04.326Z,10.26
2016-03-14T13:03:04.345Z,10.3
2016-03-14T13:04:04.364Z,10.22
2016-03-14T13:05:04.381Z,10.28
2016-03-14T13:06:04.369Z,10.2
2016-03-14T13:07:04.418Z,10.13
2016-03-14T13:08:04.420Z,10.1
2016-03-14T13:09:04.424Z,10.05
2016-03-14T13:10:04.286Z,10.19
2016-03-14T13:11:04.461Z,10.12
2016-03-14T13:12:04.495Z,10.28
2016-03-14T13:13:04.497Z,10.25
2016-03-14T13:14:04.531Z,10.31
2016-03-14T13:15:04.533Z,10.23
2016-03-14T13:16:04.552Z,10.26
2016-03-14T13:17:04.570Z,10.38
2016-03-14T13:18:04.417Z,10.37
2016-03-14T13:19:04.638Z,10.42
2016-03-14T13:20:04.594Z,10.54